KHWD/HWD METAR and TAF weather

Enter ICAO airport designator
Station Type Date Time Source
KHWD METAR 2019/12/06 01:54 UTC NOAA

KHWD 060154Z 02003KT 10SM SCT040 BKN055 15/11 A3002 RMK AO2 SLP175 T01500111


Station Type Date Time Source
KHWD Decoded METAR 2019/12/06 01:54 UTC NOAA

HAYWARD AIR TERMINAL, CA, United States (KHWD) 37-40N 122-07W 21M
Dec 05, 2019 - 08:54 PM EST / 2019.12.06 0154 UTC
Wind: from the NNE (020 degrees) at 3 MPH (3 KT):0
Visibility: 10 mile(s):0
Sky conditions: mostly cloudy
Temperature: 59.0 F (15.0 C)
Dew Point: 52.0 F (11.1 C)
Relative Humidity: 77%
Pressure (altimeter): 30.02 in. Hg (1016 hPa)
ob: KHWD 060154Z 02003KT 10SM SCT040 BKN055 15/11 A3002 RMK AO2 SLP175 T01500111
cycle: 2

Station Type Date Time Source
KHWD TAF UTC NOAA

Error!

Example: see airport list